sensor_id;sensor_type;location;lat;lon;timestamp;P1;durP1;ratioP1;P2;durP2;ratioP2
39044;SDS011;52192;52.002;5.956;2023-11-21T00:00:49;8.00;;;3.50;;
39044;SDS011;52192;52.002;5.956;2023-11-21T00:03:14;5.80;;;3.50;;
39044;SDS011;52192;52.002;5.956;2023-11-21T00:05:40;6.53;;;2.95;;
39044;SDS011;52192;52.002;5.956;2023-11-21T00:08:06;9.70;;;3.42;;
39044;SDS011;52192;52.002;5.956;2023-11-21T00:10:33;8.52;;;2.78;;
39044;SDS011;52192;52.002;5.956;2023-11-21T00:12:59;4.43;;;2.75;;
39044;SDS011;52192;52.002;5.956;2023-11-21T00:15:27;7.68;;;4.28;;
39044;SDS011;52192;52.002;5.956;2023-11-21T00:17:53;4.28;;;2.67;;
39044;SDS011;52192;52.002;5.956;2023-11-21T00:20:19;7.53;;;3.38;;
39044;SDS011;52192;52.002;5.956;2023-11-21T00:22:45;3.63;;;3.10;;
39044;SDS011;52192;52.002;5.956;2023-11-21T00:25:11;4.82;;;3.20;;
39044;SDS011;52192;52.002;5.956;2023-11-21T00:27:39;5.82;;;2.75;;
39044;SDS011;52192;52.002;5.956;2023-11-21T00:30:06;5.00;;;3.30;;
39044;SDS011;52192;52.002;5.956;2023-11-21T00:32:35;7.30;;;3.80;;
39044;SDS011;52192;52.002;5.956;2023-11-21T00:35:01;6.80;;;2.92;;
39044;SDS011;52192;52.002;5.956;2023-11-21T00:37:27;5.50;;;3.80;;
39044;SDS011;52192;52.002;5.956;2023-11-21T00:39:52;6.07;;;3.40;;
39044;SDS011;52192;52.002;5.956;2023-11-21T00:42:18;5.65;;;3.30;;
39044;SDS011;52192;52.002;5.956;2023-11-21T00:44:44;6.38;;;3.80;;
39044;SDS011;52192;52.002;5.956;2023-11-21T00:47:10;7.40;;;3.08;;
39044;SDS011;52192;52.002;5.956;2023-11-21T00:49:36;6.18;;;3.97;;
39044;SDS011;52192;52.002;5.956;2023-11-21T00:52:01;4.65;;;2.80;;
39044;SDS011;52192;52.002;5.956;2023-11-21T00:54:27;4.80;;;2.72;;
39044;SDS011;52192;52.002;5.956;2023-11-21T00:56:53;8.48;;;3.47;;
39044;SDS011;52192;52.002;5.956;2023-11-21T00:59:19;7.43;;;3.40;;
39044;SDS011;52192;52.002;5.956;2023-11-21T01:01:45;5.15;;;2.97;;
39044;SDS011;52192;52.002;5.956;2023-11-21T01:04:10;5.57;;;2.83;;
39044;SDS011;52192;52.002;5.956;2023-11-21T01:06:36;6.45;;;4.10;;
39044;SDS011;52192;52.002;5.956;2023-11-21T01:09:02;6.65;;;3.40;;
39044;SDS011;52192;52.002;5.956;2023-11-21T01:11:33;5.53;;;3.15;;
39044;SDS011;52192;52.002;5.956;2023-11-21T01:14:04;5.18;;;3.58;;
39044;SDS011;52192;52.002;5.956;2023-11-21T01:16:30;3.95;;;2.50;;
39044;SDS011;52192;52.002;5.956;2023-11-21T01:18:57;5.43;;;2.60;;
39044;SDS011;52192;52.002;5.956;2023-11-21T01:21:24;7.32;;;3.60;;
39044;SDS011;52192;52.002;5.956;2023-11-21T01:23:50;4.93;;;3.28;;
39044;SDS011;52192;52.002;5.956;2023-11-21T01:26:15;6.03;;;3.63;;
39044;SDS011;52192;52.002;5.956;2023-11-21T01:28:41;6.45;;;3.08;;
39044;SDS011;52192;52.002;5.956;2023-11-21T01:31:07;3.22;;;2.67;;
39044;SDS011;52192;52.002;5.956;2023-11-21T01:33:33;10.20;;;4.30;;
39044;SDS011;52192;52.002;5.956;2023-11-21T01:35:58;4.18;;;3.17;;
39044;SDS011;52192;52.002;5.956;2023-11-21T01:38:25;5.55;;;3.42;;
39044;SDS011;52192;52.002;5.956;2023-11-21T01:40:51;5.15;;;3.10;;
39044;SDS011;52192;52.002;5.956;2023-11-21T01:43:16;3.88;;;2.65;;
39044;SDS011;52192;52.002;5.956;2023-11-21T01:45:42;9.45;;;3.10;;
39044;SDS011;52192;52.002;5.956;2023-11-21T01:48:10;6.97;;;3.58;;
39044;SDS011;52192;52.002;5.956;2023-11-21T01:50:37;5.60;;;3.03;;
39044;SDS011;52192;52.002;5.956;2023-11-21T01:53:03;7.47;;;4.18;;
39044;SDS011;52192;52.002;5.956;2023-11-21T01:55:29;6.53;;;3.15;;
39044;SDS011;52192;52.002;5.956;2023-11-21T01:57:55;7.30;;;3.92;;
39044;SDS011;52192;52.002;5.956;2023-11-21T02:00:24;7.35;;;3.30;;
39044;SDS011;52192;52.002;5.956;2023-11-21T02:02:53;6.25;;;3.35;;
39044;SDS011;52192;52.002;5.956;2023-11-21T02:05:19;7.57;;;3.72;;
39044;SDS011;52192;52.002;5.956;2023-11-21T02:07:46;7.30;;;3.40;;
39044;SDS011;52192;52.002;5.956;2023-11-21T02:10:17;4.72;;;3.03;;
39044;SDS011;52192;52.002;5.956;2023-11-21T02:12:48;6.00;;;3.55;;
39044;SDS011;52192;52.002;5.956;2023-11-21T02:15:15;5.88;;;3.33;;
39044;SDS011;52192;52.002;5.956;2023-11-21T02:17:45;4.57;;;3.13;;
39044;SDS011;52192;52.002;5.956;2023-11-21T02:20:19;4.55;;;3.13;;
39044;SDS011;52192;52.002;5.956;2023-11-21T02:25:23;6.97;;;3.22;;
39044;SDS011;52192;52.002;5.956;2023-11-21T02:27:49;4.82;;;2.88;;
39044;SDS011;52192;52.002;5.956;2023-11-21T02:30:16;5.32;;;3.17;;
39044;SDS011;52192;52.002;5.956;2023-11-21T02:32:42;4.72;;;3.10;;
39044;SDS011;52192;52.002;5.956;2023-11-21T02:35:08;5.57;;;3.08;;
39044;SDS011;52192;52.002;5.956;2023-11-21T02:37:34;5.50;;;2.70;;
39044;SDS011;52192;52.002;5.956;2023-11-21T02:40:00;7.22;;;3.92;;
39044;SDS011;52192;52.002;5.956;2023-11-21T02:42:29;5.00;;;3.67;;
39044;SDS011;52192;52.002;5.956;2023-11-21T02:44:55;5.30;;;3.53;;
39044;SDS011;52192;52.002;5.956;2023-11-21T02:47:21;7.47;;;2.92;;
39044;SDS011;52192;52.002;5.956;2023-11-21T02:49:48;8.60;;;3.40;;
39044;SDS011;52192;52.002;5.956;2023-11-21T02:52:14;4.63;;;2.95;;
39044;SDS011;52192;52.002;5.956;2023-11-21T02:54:39;6.65;;;4.47;;
39044;SDS011;52192;52.002;5.956;2023-11-21T02:57:05;5.28;;;3.47;;
39044;SDS011;52192;52.002;5.956;2023-11-21T02:59:31;9.77;;;4.95;;
39044;SDS011;52192;52.002;5.956;2023-11-21T03:01:56;13.13;;;5.45;;
39044;SDS011;52192;52.002;5.956;2023-11-21T03:04:22;13.32;;;5.50;;
39044;SDS011;52192;52.002;5.956;2023-11-21T03:06:48;9.18;;;5.03;;
39044;SDS011;52192;52.002;5.956;2023-11-21T03:09:13;11.35;;;5.03;;
39044;SDS011;52192;52.002;5.956;2023-11-21T03:11:39;9.00;;;5.35;;
39044;SDS011;52192;52.002;5.956;2023-11-21T03:14:05;6.85;;;4.45;;
39044;SDS011;52192;52.002;5.956;2023-11-21T03:16:34;6.63;;;4.30;;
39044;SDS011;52192;52.002;5.956;2023-11-21T03:19:00;11.93;;;5.53;;
39044;SDS011;52192;52.002;5.956;2023-11-21T03:21:26;9.23;;;5.53;;
39044;SDS011;52192;52.002;5.956;2023-11-21T03:23:52;8.30;;;5.60;;
39044;SDS011;52192;52.002;5.956;2023-11-21T03:26:18;7.88;;;5.05;;
39044;SDS011;52192;52.002;5.956;2023-11-21T03:28:44;6.10;;;4.30;;
39044;SDS011;52192;52.002;5.956;2023-11-21T03:31:11;10.00;;;5.10;;
39044;SDS011;52192;52.002;5.956;2023-11-21T03:33:36;8.75;;;4.30;;
39044;SDS011;52192;52.002;5.956;2023-11-21T03:36:02;6.68;;;3.38;;
39044;SDS011;52192;52.002;5.956;2023-11-21T03:38:29;6.43;;;3.45;;
39044;SDS011;52192;52.002;5.956;2023-11-21T03:40:54;7.70;;;4.25;;
39044;SDS011;52192;52.002;5.956;2023-11-21T03:43:20;6.82;;;3.58;;
39044;SDS011;52192;52.002;5.956;2023-11-21T03:45:46;7.03;;;3.85;;
39044;SDS011;52192;52.002;5.956;2023-11-21T03:48:12;11.15;;;4.53;;
39044;SDS011;52192;52.002;5.956;2023-11-21T03:50:38;5.38;;;3.38;;
39044;SDS011;52192;52.002;5.956;2023-11-21T03:53:04;8.93;;;4.30;;
39044;SDS011;52192;52.002;5.956;2023-11-21T03:55:29;5.00;;;4.10;;
39044;SDS011;52192;52.002;5.956;2023-11-21T03:57:57;6.13;;;3.80;;
39044;SDS011;52192;52.002;5.956;2023-11-21T04:00:23;6.90;;;3.97;;
39044;SDS011;52192;52.002;5.956;2023-11-21T04:02:51;6.43;;;3.75;;
39044;SDS011;52192;52.002;5.956;2023-11-21T04:05:17;7.35;;;4.53;;
39044;SDS011;52192;52.002;5.956;2023-11-21T04:07:45;11.95;;;4.38;;
39044;SDS011;52192;52.002;5.956;2023-11-21T04:10:10;6.40;;;4.32;;
39044;SDS011;52192;52.002;5.956;2023-11-21T04:12:38;9.18;;;3.80;;
39044;SDS011;52192;52.002;5.956;2023-11-21T04:15:04;8.30;;;3.97;;
39044;SDS011;52192;52.002;5.956;2023-11-21T04:17:30;6.68;;;3.53;;
39044;SDS011;52192;52.002;5.956;2023-11-21T04:19:56;6.68;;;4.25;;
39044;SDS011;52192;52.002;5.956;2023-11-21T04:22:21;5.20;;;3.65;;
39044;SDS011;52192;52.002;5.956;2023-11-21T04:24:47;7.57;;;4.22;;
39044;SDS011;52192;52.002;5.956;2023-11-21T04:27:14;9.02;;;5.13;;
39044;SDS011;52192;52.002;5.956;2023-11-21T04:29:40;12.35;;;5.28;;
39044;SDS011;52192;52.002;5.956;2023-11-21T04:32:06;8.55;;;4.22;;
39044;SDS011;52192;52.002;5.956;2023-11-21T04:34:33;11.23;;;6.00;;
39044;SDS011;52192;52.002;5.956;2023-11-21T04:36:59;8.52;;;5.80;;
39044;SDS011;52192;52.002;5.956;2023-11-21T04:39:25;9.32;;;5.78;;
39044;SDS011;52192;52.002;5.956;2023-11-21T04:41:51;10.32;;;5.85;;
39044;SDS011;52192;52.002;5.956;2023-11-21T04:44:17;8.30;;;4.78;;
39044;SDS011;52192;52.002;5.956;2023-11-21T04:46:43;10.18;;;5.28;;
39044;SDS011;52192;52.002;5.956;2023-11-21T04:49:08;9.85;;;5.85;;
39044;SDS011;52192;52.002;5.956;2023-11-21T04:51:35;10.60;;;5.22;;
39044;SDS011;52192;52.002;5.956;2023-11-21T04:54:01;12.02;;;5.95;;
39044;SDS011;52192;52.002;5.956;2023-11-21T04:56:27;9.45;;;5.20;;
39044;SDS011;52192;52.002;5.956;2023-11-21T04:58:53;7.72;;;4.72;;
39044;SDS011;52192;52.002;5.956;2023-11-21T05:01:19;9.25;;;5.28;;
39044;SDS011;52192;52.002;5.956;2023-11-21T05:03:46;7.75;;;4.68;;
39044;SDS011;52192;52.002;5.956;2023-11-21T05:06:12;8.23;;;5.18;;
39044;SDS011;52192;52.002;5.956;2023-11-21T05:08:39;8.10;;;4.65;;
39044;SDS011;52192;52.002;5.956;2023-11-21T05:11:05;10.30;;;5.22;;
39044;SDS011;52192;52.002;5.956;2023-11-21T05:13:33;9.93;;;5.00;;
39044;SDS011;52192;52.002;5.956;2023-11-21T05:15:59;8.70;;;4.32;;
39044;SDS011;52192;52.002;5.956;2023-11-21T05:18:25;7.53;;;3.92;;
39044;SDS011;52192;52.002;5.956;2023-11-21T05:20:55;9.35;;;5.30;;
39044;SDS011;52192;52.002;5.956;2023-11-21T05:23:21;8.80;;;4.68;;
39044;SDS011;52192;52.002;5.956;2023-11-21T05:25:46;7.88;;;3.85;;
39044;SDS011;52192;52.002;5.956;2023-11-21T05:28:12;6.90;;;3.70;;
39044;SDS011;52192;52.002;5.956;2023-11-21T05:30:38;7.03;;;3.67;;
39044;SDS011;52192;52.002;5.956;2023-11-21T05:33:04;7.43;;;5.50;;
39044;SDS011;52192;52.002;5.956;2023-11-21T05:35:31;8.48;;;4.55;;
39044;SDS011;52192;52.002;5.956;2023-11-21T05:37:56;5.97;;;3.95;;
39044;SDS011;52192;52.002;5.956;2023-11-21T05:40:22;6.85;;;3.60;;
39044;SDS011;52192;52.002;5.956;2023-11-21T05:42:48;11.07;;;5.38;;
39044;SDS011;52192;52.002;5.956;2023-11-21T05:45:14;7.38;;;3.20;;
39044;SDS011;52192;52.002;5.956;2023-11-21T05:47:42;11.13;;;4.70;;
39044;SDS011;52192;52.002;5.956;2023-11-21T05:50:09;10.57;;;4.53;;
39044;SDS011;52192;52.002;5.956;2023-11-21T05:52:37;6.88;;;4.25;;
39044;SDS011;52192;52.002;5.956;2023-11-21T05:55:03;7.05;;;4.18;;
39044;SDS011;52192;52.002;5.956;2023-11-21T05:57:33;4.80;;;3.25;;
39044;SDS011;52192;52.002;5.956;2023-11-21T06:00:01;7.38;;;3.55;;
39044;SDS011;52192;52.002;5.956;2023-11-21T06:02:45;4.35;;;3.03;;
39044;SDS011;52192;52.002;5.956;2023-11-21T06:05:12;5.43;;;3.95;;
39044;SDS011;52192;52.002;5.956;2023-11-21T06:07:37;5.55;;;3.05;;
39044;SDS011;52192;52.002;5.956;2023-11-21T06:10:04;6.03;;;3.33;;
39044;SDS011;52192;52.002;5.956;2023-11-21T06:12:37;4.72;;;3.45;;
39044;SDS011;52192;52.002;5.956;2023-11-21T06:15:05;5.78;;;3.38;;
39044;SDS011;52192;52.002;5.956;2023-11-21T06:17:33;6.88;;;3.65;;
39044;SDS011;52192;52.002;5.956;2023-11-21T06:20:05;8.05;;;3.33;;
39044;SDS011;52192;52.002;5.956;2023-11-21T06:22:36;5.68;;;3.38;;
39044;SDS011;52192;52.002;5.956;2023-11-21T06:25:03;5.72;;;3.83;;
39044;SDS011;52192;52.002;5.956;2023-11-21T06:27:31;7.10;;;3.65;;
39044;SDS011;52192;52.002;5.956;2023-11-21T06:30:05;6.30;;;3.58;;
39044;SDS011;52192;52.002;5.956;2023-11-21T06:32:31;4.90;;;2.88;;
39044;SDS011;52192;52.002;5.956;2023-11-21T06:34:57;7.78;;;3.60;;
39044;SDS011;52192;52.002;5.956;2023-11-21T06:37:29;4.70;;;2.80;;
39044;SDS011;52192;52.002;5.956;2023-11-21T06:39:55;5.93;;;3.67;;
39044;SDS011;52192;52.002;5.956;2023-11-21T06:42:23;4.43;;;3.38;;
39044;SDS011;52192;52.002;5.956;2023-11-21T06:44:49;5.63;;;3.83;;
39044;SDS011;52192;52.002;5.956;2023-11-21T06:47:19;5.10;;;3.40;;
39044;SDS011;52192;52.002;5.956;2023-11-21T06:49:51;5.15;;;3.75;;
39044;SDS011;52192;52.002;5.956;2023-11-21T06:52:18;5.57;;;3.53;;
39044;SDS011;52192;52.002;5.956;2023-11-21T06:54:44;7.13;;;3.58;;
39044;SDS011;52192;52.002;5.956;2023-11-21T06:57:12;5.82;;;2.90;;
39044;SDS011;52192;52.002;5.956;2023-11-21T06:59:38;8.00;;;3.47;;
39044;SDS011;52192;52.002;5.956;2023-11-21T07:02:04;4.03;;;3.22;;
39044;SDS011;52192;52.002;5.956;2023-11-21T07:04:31;7.15;;;3.47;;
39044;SDS011;52192;52.002;5.956;2023-11-21T07:06:57;5.82;;;3.88;;
39044;SDS011;52192;52.002;5.956;2023-11-21T07:09:23;5.32;;;2.85;;
39044;SDS011;52192;52.002;5.956;2023-11-21T07:11:50;4.10;;;2.83;;
39044;SDS011;52192;52.002;5.956;2023-11-21T07:14:17;5.03;;;3.53;;
39044;SDS011;52192;52.002;5.956;2023-11-21T07:16:44;9.35;;;3.33;;
39044;SDS011;52192;52.002;5.956;2023-11-21T07:19:11;6.47;;;3.22;;
39044;SDS011;52192;52.002;5.956;2023-11-21T07:21:37;5.78;;;3.10;;
39044;SDS011;52192;52.002;5.956;2023-11-21T07:24:04;6.18;;;3.72;;
39044;SDS011;52192;52.002;5.956;2023-11-21T07:26:31;5.88;;;3.92;;
39044;SDS011;52192;52.002;5.956;2023-11-21T07:28:58;7.95;;;3.78;;
39044;SDS011;52192;52.002;5.956;2023-11-21T07:31:24;5.88;;;4.28;;
39044;SDS011;52192;52.002;5.956;2023-11-21T07:33:50;6.45;;;4.28;;
39044;SDS011;52192;52.002;5.956;2023-11-21T07:36:16;7.43;;;3.80;;
39044;SDS011;52192;52.002;5.956;2023-11-21T07:41:14;8.20;;;4.85;;
39044;SDS011;52192;52.002;5.956;2023-11-21T07:43:40;7.68;;;4.55;;
39044;SDS011;52192;52.002;5.956;2023-11-21T07:46:09;7.65;;;4.15;;
39044;SDS011;52192;52.002;5.956;2023-11-21T07:48:37;6.57;;;3.95;;
39044;SDS011;52192;52.002;5.956;2023-11-21T07:51:11;7.95;;;4.22;;
39044;SDS011;52192;52.002;5.956;2023-11-21T07:53:38;8.38;;;3.58;;
39044;SDS011;52192;52.002;5.956;2023-11-21T07:58:34;7.10;;;3.45;;
39044;SDS011;52192;52.002;5.956;2023-11-21T08:01:00;10.48;;;5.40;;
39044;SDS011;52192;52.002;5.956;2023-11-21T08:03:30;8.85;;;5.15;;
39044;SDS011;52192;52.002;5.956;2023-11-21T08:05:56;11.88;;;4.00;;
39044;SDS011;52192;52.002;5.956;2023-11-21T08:08:22;9.38;;;5.10;;
39044;SDS011;52192;52.002;5.956;2023-11-21T08:10:49;6.22;;;4.60;;
39044;SDS011;52192;52.002;5.956;2023-11-21T08:13:21;8.50;;;3.92;;
39044;SDS011;52192;52.002;5.956;2023-11-21T08:15:54;5.13;;;3.47;;
39044;SDS011;52192;52.002;5.956;2023-11-21T08:18:20;5.47;;;3.53;;
39044;SDS011;52192;52.002;5.956;2023-11-21T08:20:46;6.00;;;3.75;;
39044;SDS011;52192;52.002;5.956;2023-11-21T08:23:13;7.45;;;4.75;;
39044;SDS011;52192;52.002;5.956;2023-11-21T08:25:40;7.03;;;4.03;;
39044;SDS011;52192;52.002;5.956;2023-11-21T08:28:07;5.57;;;4.20;;
39044;SDS011;52192;52.002;5.956;2023-11-21T08:30:33;8.10;;;5.03;;
39044;SDS011;52192;52.002;5.956;2023-11-21T08:33:00;8.63;;;5.38;;
39044;SDS011;52192;52.002;5.956;2023-11-21T08:35:25;7.13;;;3.67;;
39044;SDS011;52192;52.002;5.956;2023-11-21T08:37:51;7.60;;;5.32;;
39044;SDS011;52192;52.002;5.956;2023-11-21T08:40:20;7.57;;;4.15;;
39044;SDS011;52192;52.002;5.956;2023-11-21T08:42:49;8.20;;;5.28;;
39044;SDS011;52192;52.002;5.956;2023-11-21T08:45:17;9.55;;;4.88;;
39044;SDS011;52192;52.002;5.956;2023-11-21T08:47:44;10.60;;;4.60;;
39044;SDS011;52192;52.002;5.956;2023-11-21T08:50:10;13.65;;;4.75;;
39044;SDS011;52192;52.002;5.956;2023-11-21T08:52:39;8.13;;;4.40;;
39044;SDS011;52192;52.002;5.956;2023-11-21T08:55:06;8.10;;;4.22;;
39044;SDS011;52192;52.002;5.956;2023-11-21T08:57:37;7.97;;;4.32;;
39044;SDS011;52192;52.002;5.956;2023-11-21T09:00:05;7.97;;;4.22;;
39044;SDS011;52192;52.002;5.956;2023-11-21T09:02:36;8.35;;;4.88;;
39044;SDS011;52192;52.002;5.956;2023-11-21T09:05:05;8.82;;;4.78;;
39044;SDS011;52192;52.002;5.956;2023-11-21T09:07:32;8.95;;;5.13;;
39044;SDS011;52192;52.002;5.956;2023-11-21T09:09:58;8.65;;;4.05;;
39044;SDS011;52192;52.002;5.956;2023-11-21T09:12:23;9.50;;;4.85;;
39044;SDS011;52192;52.002;5.956;2023-11-21T09:14:52;6.00;;;3.92;;
39044;SDS011;52192;52.002;5.956;2023-11-21T09:17:17;6.95;;;4.00;;
39044;SDS011;52192;52.002;5.956;2023-11-21T09:19:43;11.05;;;5.20;;
39044;SDS011;52192;52.002;5.956;2023-11-21T09:24:42;9.32;;;4.35;;
39044;SDS011;52192;52.002;5.956;2023-11-21T09:27:08;7.75;;;4.65;;
39044;SDS011;52192;52.002;5.956;2023-11-21T09:29:34;7.45;;;4.65;;
39044;SDS011;52192;52.002;5.956;2023-11-21T09:32:01;8.05;;;4.47;;
39044;SDS011;52192;52.002;5.956;2023-11-21T09:34:28;8.27;;;5.68;;
39044;SDS011;52192;52.002;5.956;2023-11-21T09:36:53;13.15;;;5.28;;
39044;SDS011;52192;52.002;5.956;2023-11-21T09:39:19;8.02;;;4.30;;
39044;SDS011;52192;52.002;5.956;2023-11-21T09:47:26;4.55;;;3.38;;
39044;SDS011;52192;52.002;5.956;2023-11-21T09:49:53;5.40;;;3.50;;
39044;SDS011;52192;52.002;5.956;2023-11-21T09:52:22;7.75;;;4.53;;
39044;SDS011;52192;52.002;5.956;2023-11-21T09:54:50;4.88;;;3.65;;
39044;SDS011;52192;52.002;5.956;2023-11-21T09:57:19;8.55;;;3.83;;
39044;SDS011;52192;52.002;5.956;2023-11-21T09:59:47;9.00;;;4.88;;
39044;SDS011;52192;52.002;5.956;2023-11-21T10:02:27;9.50;;;4.22;;
39044;SDS011;52192;52.002;5.956;2023-11-21T10:04:58;8.20;;;5.30;;
39044;SDS011;52192;52.002;5.956;2023-11-21T10:07:25;6.50;;;4.47;;
39044;SDS011;52192;52.002;5.956;2023-11-21T10:09:53;7.28;;;4.43;;
39044;SDS011;52192;52.002;5.956;2023-11-21T10:12:20;9.88;;;4.18;;
39044;SDS011;52192;52.002;5.956;2023-11-21T10:14:48;5.15;;;2.72;;
39044;SDS011;52192;52.002;5.956;2023-11-21T10:17:16;9.18;;;3.78;;
39044;SDS011;52192;52.002;5.956;2023-11-21T10:19:46;5.82;;;2.05;;
39044;SDS011;52192;52.002;5.956;2023-11-21T10:22:15;3.88;;;2.47;;
39044;SDS011;52192;52.002;5.956;2023-11-21T10:24:42;4.35;;;2.58;;
39044;SDS011;52192;52.002;5.956;2023-11-21T10:27:08;5.38;;;2.72;;
39044;SDS011;52192;52.002;5.956;2023-11-21T10:29:34;5.20;;;2.50;;
39044;SDS011;52192;52.002;5.956;2023-11-21T10:32:03;8.60;;;2.55;;
39044;SDS011;52192;52.002;5.956;2023-11-21T10:34:30;3.90;;;2.45;;
39044;SDS011;52192;52.002;5.956;2023-11-21T10:36:56;4.80;;;2.65;;
39044;SDS011;52192;52.002;5.956;2023-11-21T10:39:23;4.18;;;2.22;;
39044;SDS011;52192;52.002;5.956;2023-11-21T10:41:52;3.42;;;2.70;;
39044;SDS011;52192;52.002;5.956;2023-11-21T10:44:20;3.40;;;1.95;;
39044;SDS011;52192;52.002;5.956;2023-11-21T10:46:55;3.67;;;1.92;;
39044;SDS011;52192;52.002;5.956;2023-11-21T10:49:22;5.00;;;2.13;;
39044;SDS011;52192;52.002;5.956;2023-11-21T10:51:53;3.78;;;2.60;;
39044;SDS011;52192;52.002;5.956;2023-11-21T10:54:20;2.90;;;1.85;;
39044;SDS011;52192;52.002;5.956;2023-11-21T10:56:47;3.63;;;2.20;;
39044;SDS011;52192;52.002;5.956;2023-11-21T10:59:16;2.85;;;1.83;;
39044;SDS011;52192;52.002;5.956;2023-11-21T11:01:44;2.42;;;1.58;;
39044;SDS011;52192;52.002;5.956;2023-11-21T11:04:13;6.80;;;2.22;;
39044;SDS011;52192;52.002;5.956;2023-11-21T11:06:45;3.58;;;1.95;;
39044;SDS011;52192;52.002;5.956;2023-11-21T11:09:16;3.00;;;2.30;;
39044;SDS011;52192;52.002;5.956;2023-11-21T11:11:43;5.72;;;2.30;;
39044;SDS011;52192;52.002;5.956;2023-11-21T11:14:13;4.82;;;2.53;;
39044;SDS011;52192;52.002;5.956;2023-11-21T11:16:39;4.18;;;2.80;;
39044;SDS011;52192;52.002;5.956;2023-11-21T11:19:06;3.53;;;2.60;;
39044;SDS011;52192;52.002;5.956;2023-11-21T11:21:43;4.78;;;2.55;;
39044;SDS011;52192;52.002;5.956;2023-11-21T11:27:23;6.22;;;3.90;;
39044;SDS011;52192;52.002;5.956;2023-11-21T11:30:05;6.68;;;3.50;;
39044;SDS011;52192;52.002;5.956;2023-11-21T11:35:41;7.35;;;3.80;;
39044;SDS011;52192;52.002;5.956;2023-11-21T11:38:18;4.03;;;2.35;;
39044;SDS011;52192;52.002;5.956;2023-11-21T11:40:46;5.55;;;2.55;;
39044;SDS011;52192;52.002;5.956;2023-11-21T11:43:12;3.50;;;2.25;;
39044;SDS011;52192;52.002;5.956;2023-11-21T11:45:37;3.55;;;2.03;;
39044;SDS011;52192;52.002;5.956;2023-11-21T11:48:07;2.42;;;1.90;;
39044;SDS011;52192;52.002;5.956;2023-11-21T11:50:41;2.90;;;2.58;;
39044;SDS011;52192;52.002;5.956;2023-11-21T11:53:25;7.70;;;2.13;;
39044;SDS011;52192;52.002;5.956;2023-11-21T11:56:36;2.38;;;1.67;;
39044;SDS011;52192;52.002;5.956;2023-11-21T11:58:54;3.35;;;2.60;;
39044;SDS011;52192;52.002;5.956;2023-11-21T12:01:21;5.00;;;1.98;;
39044;SDS011;52192;52.002;5.956;2023-11-21T12:06:42;2.75;;;1.85;;
39044;SDS011;52192;52.002;5.956;2023-11-21T12:09:17;2.17;;;1.42;;
39044;SDS011;52192;52.002;5.956;2023-11-21T12:11:48;2.55;;;2.05;;
39044;SDS011;52192;52.002;5.956;2023-11-21T12:14:15;3.28;;;2.08;;
39044;SDS011;52192;52.002;5.956;2023-11-21T12:16:41;4.00;;;1.98;;
39044;SDS011;52192;52.002;5.956;2023-11-21T12:19:13;3.60;;;2.10;;
39044;SDS011;52192;52.002;5.956;2023-11-21T12:21:40;5.03;;;2.63;;
39044;SDS011;52192;52.002;5.956;2023-11-21T12:24:13;2.60;;;1.90;;
39044;SDS011;52192;52.002;5.956;2023-11-21T12:26:41;7.40;;;2.30;;
39044;SDS011;52192;52.002;5.956;2023-11-21T12:29:07;4.13;;;2.10;;
39044;SDS011;52192;52.002;5.956;2023-11-21T12:31:34;10.07;;;3.58;;
39044;SDS011;52192;52.002;5.956;2023-11-21T12:34:00;3.05;;;1.85;;
39044;SDS011;52192;52.002;5.956;2023-11-21T12:36:26;4.57;;;2.85;;
39044;SDS011;52192;52.002;5.956;2023-11-21T12:38:54;6.32;;;2.10;;
39044;SDS011;52192;52.002;5.956;2023-11-21T12:41:19;5.30;;;2.70;;
39044;SDS011;52192;52.002;5.956;2023-11-21T12:43:46;4.25;;;2.67;;
39044;SDS011;52192;52.002;5.956;2023-11-21T12:46:13;4.50;;;2.53;;
39044;SDS011;52192;52.002;5.956;2023-11-21T12:48:43;6.72;;;3.00;;
39044;SDS011;52192;52.002;5.956;2023-11-21T12:51:10;5.53;;;2.90;;
39044;SDS011;52192;52.002;5.956;2023-11-21T12:53:39;4.25;;;2.85;;
39044;SDS011;52192;52.002;5.956;2023-11-21T12:56:14;4.00;;;2.88;;
39044;SDS011;52192;52.002;5.956;2023-11-21T12:58:44;7.40;;;3.22;;
39044;SDS011;52192;52.002;5.956;2023-11-21T13:01:15;5.15;;;3.55;;
39044;SDS011;52192;52.002;5.956;2023-11-21T13:03:46;9.82;;;3.63;;
39044;SDS011;52192;52.002;5.956;2023-11-21T13:06:13;5.45;;;3.55;;
39044;SDS011;52192;52.002;5.956;2023-11-21T13:08:41;8.60;;;3.97;;
39044;SDS011;52192;52.002;5.956;2023-11-21T13:11:06;7.20;;;3.17;;
39044;SDS011;52192;52.002;5.956;2023-11-21T13:13:32;8.35;;;3.10;;
39044;SDS011;52192;52.002;5.956;2023-11-21T13:16:01;5.00;;;2.85;;
39044;SDS011;52192;52.002;5.956;2023-11-21T13:18:31;4.53;;;2.97;;
39044;SDS011;52192;52.002;5.956;2023-11-21T13:21:01;7.30;;;3.92;;
39044;SDS011;52192;52.002;5.956;2023-11-21T13:23:34;5.25;;;3.53;;
39044;SDS011;52192;52.002;5.956;2023-11-21T13:26:02;6.38;;;3.45;;
39044;SDS011;52192;52.002;5.956;2023-11-21T13:28:31;5.50;;;2.97;;
39044;SDS011;52192;52.002;5.956;2023-11-21T13:30:59;4.65;;;3.28;;
39044;SDS011;52192;52.002;5.956;2023-11-21T13:33:34;4.82;;;2.63;;
39044;SDS011;52192;52.002;5.956;2023-11-21T13:36:03;6.10;;;3.17;;
39044;SDS011;52192;52.002;5.956;2023-11-21T13:38:32;6.80;;;2.60;;
39044;SDS011;52192;52.002;5.956;2023-11-21T13:41:00;6.28;;;3.22;;
39044;SDS011;52192;52.002;5.956;2023-11-21T13:43:26;6.18;;;2.85;;
39044;SDS011;52192;52.002;5.956;2023-11-21T13:45:54;4.10;;;2.53;;
39044;SDS011;52192;52.002;5.956;2023-11-21T13:48:38;3.22;;;2.53;;
39044;SDS011;52192;52.002;5.956;2023-11-21T13:51:08;5.90;;;2.90;;
39044;SDS011;52192;52.002;5.956;2023-11-21T13:53:46;4.88;;;2.58;;
39044;SDS011;52192;52.002;5.956;2023-11-21T13:56:15;5.82;;;3.30;;
39044;SDS011;52192;52.002;5.956;2023-11-21T13:58:45;6.13;;;4.22;;
39044;SDS011;52192;52.002;5.956;2023-11-21T14:01:23;5.47;;;2.83;;
39044;SDS011;52192;52.002;5.956;2023-11-21T14:03:58;4.22;;;2.42;;
39044;SDS011;52192;52.002;5.956;2023-11-21T14:06:48;3.90;;;2.13;;
39044;SDS011;52192;52.002;5.956;2023-11-21T14:09:19;3.60;;;2.08;;
39044;SDS011;52192;52.002;5.956;2023-11-21T14:11:51;4.82;;;1.70;;
39044;SDS011;52192;52.002;5.956;2023-11-21T14:14:19;3.00;;;1.85;;
39044;SDS011;52192;52.002;5.956;2023-11-21T14:16:45;2.95;;;1.85;;
39044;SDS011;52192;52.002;5.956;2023-11-21T14:19:11;3.10;;;2.10;;
39044;SDS011;52192;52.002;5.956;2023-11-21T14:21:46;2.83;;;1.85;;
39044;SDS011;52192;52.002;5.956;2023-11-21T14:24:14;2.78;;;1.65;;
39044;SDS011;52192;52.002;5.956;2023-11-21T14:26:43;6.13;;;3.10;;
39044;SDS011;52192;52.002;5.956;2023-11-21T14:29:13;4.90;;;2.10;;
39044;SDS011;52192;52.002;5.956;2023-11-21T14:31:44;3.30;;;2.20;;
39044;SDS011;52192;52.002;5.956;2023-11-21T14:34:10;5.35;;;2.70;;
39044;SDS011;52192;52.002;5.956;2023-11-21T14:36:37;6.75;;;3.70;;
39044;SDS011;52192;52.002;5.956;2023-11-21T14:39:04;4.00;;;2.33;;
39044;SDS011;52192;52.002;5.956;2023-11-21T14:41:34;4.80;;;2.42;;
39044;SDS011;52192;52.002;5.956;2023-11-21T14:44:04;5.40;;;3.08;;
39044;SDS011;52192;52.002;5.956;2023-11-21T14:46:32;6.53;;;2.28;;
39044;SDS011;52192;52.002;5.956;2023-11-21T14:49:00;4.40;;;2.42;;
39044;SDS011;52192;52.002;5.956;2023-11-21T14:51:44;6.03;;;2.95;;
39044;SDS011;52192;52.002;5.956;2023-11-21T14:54:28;7.18;;;3.03;;
39044;SDS011;52192;52.002;5.956;2023-11-21T14:57:08;6.68;;;3.45;;
39044;SDS011;52192;52.002;5.956;2023-11-21T14:59:36;7.45;;;3.20;;
39044;SDS011;52192;52.002;5.956;2023-11-21T15:02:13;7.15;;;3.78;;
39044;SDS011;52192;52.002;5.956;2023-11-21T15:04:41;6.82;;;3.13;;
39044;SDS011;52192;52.002;5.956;2023-11-21T15:07:07;7.47;;;3.33;;
39044;SDS011;52192;52.002;5.956;2023-11-21T15:09:33;5.75;;;3.55;;
39044;SDS011;52192;52.002;5.956;2023-11-21T15:12:04;4.57;;;3.28;;
39044;SDS011;52192;52.002;5.956;2023-11-21T15:14:45;7.10;;;3.33;;
39044;SDS011;52192;52.002;5.956;2023-11-21T15:17:15;5.25;;;3.33;;